Time;durP1;ratioP1;P1;durP2;ratioP2;P2;SDS_P1;SDS_P2;PMS_P1;PMS_P2;Temp;Humidity;BMP_temperature;BMP_pressure;BME280_temperature;BME280_humidity;BME280_pressure;Samples;Min_cycle;Max_cycle;Signal;HPM_P1;HPM_P2
2024/01/18 00:00:35;;;;;;;21.00;12.52;;;;;;;1.14;75.86;99092.28;3609038;39;20059;-63
2024/01/18 00:03:02;;;;;;;17.13;11.60;;;;;;;1.06;75.57;99082.13;3608704;39;20110;-64
2024/01/18 00:05:27;;;;;;;19.90;12.15;;;;;;;1.12;75.17;99097.69;3608180;39;20101;-63
2024/01/18 00:07:53;;;;;;;20.45;13.00;;;;;;;1.12;76.14;99097.69;3609510;39;20063;-63
2024/01/18 00:10:23;;;;;;;16.98;12.25;;;;;;;1.10;75.21;99102.19;3609522;39;20062;-63
2024/01/18 00:12:49;;;;;;;21.75;13.05;;;;;;;1.11;75.71;99111.84;3607351;39;20059;-63
2024/01/18 00:15:14;;;;;;;18.42;12.05;;;;;;;1.08;76.56;99112.00;3611521;39;20062;-63
2024/01/18 00:17:40;;;;;;;19.42;12.85;;;;;;;1.11;75.96;99122.44;3610643;39;20062;-64
2024/01/18 00:20:06;;;;;;;17.88;11.77;;;;;;;1.11;77.28;99122.44;3609763;39;20055;-63
2024/01/18 00:22:32;;;;;;;22.08;12.82;;;;;;;1.05;76.69;99121.91;3609292;39;20054;-63
2024/01/18 00:24:57;;;;;;;20.33;12.63;;;;;;;1.09;75.88;99140.19;3607838;39;20418;-63
2024/01/18 00:27:23;;;;;;;19.95;12.63;;;;;;;0.95;76.63;99116.19;3610186;39;20066;-63
2024/01/18 00:29:48;;;;;;;19.40;11.63;;;;;;;1.08;75.89;99133.19;3601537;39;20375;-63
2024/01/18 00:32:14;;;;;;;17.42;12.05;;;;;;;1.08;75.95;99133.19;3608807;39;20058;-63
2024/01/18 00:34:39;;;;;;;20.70;12.38;;;;;;;1.05;76.93;99132.47;3607707;39;20070;-63
2024/01/18 00:37:06;;;;;;;21.10;12.77;;;;;;;1.03;75.73;99129.91;3609093;39;20062;-63
2024/01/18 00:39:31;;;;;;;17.75;11.60;;;;;;;1.01;76.12;99131.75;3609088;39;20198;-63
2024/01/18 00:41:57;;;;;;;18.38;12.23;;;;;;;1.07;76.17;99130.59;3611871;39;20055;-63
2024/01/18 00:44:22;;;;;;;19.58;12.32;;;;;;;1.07;76.10;99136.72;3609775;39;20053;-63
2024/01/18 00:46:48;;;;;;;21.15;12.13;;;;;;;1.08;76.85;99137.59;3610615;39;20058;-63
2024/01/18 00:49:13;;;;;;;19.70;12.45;;;;;;;1.07;77.56;99136.72;3600730;39;20081;-63
2024/01/18 00:51:39;;;;;;;19.00;12.60;;;;;;;1.04;77.55;99141.34;3608431;39;21260;-64
2024/01/18 00:54:05;;;;;;;18.02;12.82;;;;;;;0.66;77.39;99086.75;3611423;39;20716;-63
2024/01/18 00:56:30;;;;;;;21.42;12.85;;;;;;;1.03;77.25;99155.50;3609180;39;20090;-63
2024/01/18 00:58:56;;;;;;;19.17;11.38;;;;;;;1.02;77.88;99161.72;3610053;39;20330;-63
2024/01/18 01:01:22;;;;;;;18.92;12.50;;;;;;;1.01;77.91;99163.50;3610305;39;20062;-63
2024/01/18 01:03:47;;;;;;;20.25;13.18;;;;;;;1.03;78.44;99163.44;3609260;39;20144;-63
2024/01/18 01:06:13;;;;;;;20.63;12.25;;;;;;;1.04;78.02;99163.34;3609253;39;20379;-63
2024/01/18 01:08:39;;;;;;;18.10;12.95;;;;;;;1.01;77.42;99166.16;3608934;39;20071;-63
2024/01/18 01:11:08;;;;;;;18.90;12.80;;;;;;;1.03;77.62;99161.66;3610846;39;20070;-63
2024/01/18 01:13:34;;;;;;;17.58;12.65;;;;;;;0.87;78.24;99147.47;3609149;39;20058;-64
2024/01/18 01:16:00;;;;;;;19.30;12.50;;;;;;;0.99;77.91;99165.38;3610823;39;20087;-63
2024/01/18 01:18:26;;;;;;;17.35;12.18;;;;;;;0.99;77.75;99168.03;3608671;39;20085;-63
2024/01/18 01:20:51;;;;;;;23.25;12.90;;;;;;;0.98;78.49;99166.28;3606750;39;20055;-63
2024/01/18 01:23:17;;;;;;;21.17;13.00;;;;;;;0.93;78.25;99160.41;3608790;39;20058;-63
2024/01/18 01:25:42;;;;;;;21.85;12.93;;;;;;;0.96;78.38;99180.56;3611656;39;20066;-63
2024/01/18 01:28:08;;;;;;;20.17;12.73;;;;;;;0.89;78.20;99175.56;3612531;39;20314;-63
2024/01/18 01:30:34;;;;;;;23.50;13.07;;;;;;;0.93;78.54;99181.56;3612419;39;20116;-63
2024/01/18 01:32:59;;;;;;;19.05;13.40;;;;;;;0.90;78.65;99177.25;3602484;39;20364;-64
2024/01/18 01:35:25;;;;;;;19.17;13.30;;;;;;;0.90;79.12;99187.00;3612319;39;20057;-64
2024/01/18 01:37:51;;;;;;;19.05;13.00;;;;;;;0.90;79.43;99192.28;3607993;39;20055;-63
2024/01/18 01:40:19;;;;;;;22.13;13.27;;;;;;;0.79;78.65;99184.00;3612270;39;20042;-64
2024/01/18 01:42:44;;;;;;;18.05;13.25;;;;;;;0.72;78.43;99169.38;3612850;39;20268;-63
2024/01/18 01:45:10;;;;;;;22.50;13.93;;;;;;;0.87;78.16;99198.56;3611631;39;20054;-65
2024/01/18 01:47:36;;;;;;;19.27;13.32;;;;;;;0.87;79.18;99203.88;3609420;39;20066;-63
2024/01/18 01:50:02;;;;;;;19.02;13.48;;;;;;;0.87;78.19;99198.56;3610225;39;20054;-63
2024/01/18 01:52:32;;;;;;;20.05;13.35;;;;;;;0.85;79.61;99200.44;3612141;39;20081;-63
2024/01/18 01:54:58;;;;;;;17.42;12.52;;;;;;;0.85;79.44;99204.88;3609923;39;20148;-63
2024/01/18 01:57:26;;;;;;;20.52;13.82;;;;;;;0.82;79.36;99210.31;3611110;39;20110;-65
2024/01/18 01:59:53;;;;;;;22.20;13.77;;;;;;;0.82;80.07;99211.16;3611052;39;20380;-63
2024/01/18 02:02:23;;;;;;;18.63;13.23;;;;;;;0.82;79.29;99199.72;3610453;39;20063;-63
2024/01/18 02:04:50;;;;;;;18.80;13.32;;;;;;;0.80;79.47;99204.25;3609222;39;20043;-63
2024/01/18 02:07:18;;;;;;;19.75;13.07;;;;;;;0.77;79.83;99204.41;3610608;39;20054;-64
2024/01/18 02:09:44;;;;;;;22.58;12.43;;;;;;;0.76;80.54;99210.59;3608321;39;20110;-64
2024/01/18 02:12:12;;;;;;;19.90;13.30;;;;;;;0.77;79.82;99207.03;3610126;39;20049;-63
2024/01/18 02:14:38;;;;;;;21.38;13.55;;;;;;;0.74;79.25;99197.47;3609834;39;20181;-63
2024/01/18 02:17:06;;;;;;;18.65;12.63;;;;;;;0.72;80.49;99195.81;3611581;39;20063;-63
2024/01/18 02:19:31;;;;;;;25.95;13.73;;;;;;;0.59;80.36;99172.59;3610075;39;20128;-63
2024/01/18 02:22:02;;;;;;;19.13;13.20;;;;;;;0.62;80.09;99180.38;3612797;39;20071;-63
2024/01/18 02:24:45;;;;;;;19.95;13.80;;;;;;;0.75;80.85;99201.81;3611106;39;20055;-63
2024/01/18 02:27:11;;;;;;;19.30;13.18;;;;;;;0.77;80.61;99191.16;3610498;39;20067;-63
2024/01/18 02:29:37;;;;;;;20.38;13.43;;;;;;;0.74;80.98;99191.31;3610127;39;20059;-64
2024/01/18 02:32:03;;;;;;;18.98;12.60;;;;;;;0.60;80.41;99184.03;3609532;39;20071;-64
2024/01/18 02:34:29;;;;;;;23.52;13.20;;;;;;;0.70;80.67;99193.25;3609060;39;20391;-63
2024/01/18 02:36:55;;;;;;;20.13;13.10;;;;;;;0.70;80.34;99201.19;3612971;39;20062;-63
2024/01/18 02:39:21;;;;;;;19.30;13.48;;;;;;;0.74;80.68;99202.75;3610909;39;20053;-63
2024/01/18 02:41:47;;;;;;;17.98;12.90;;;;;;;0.73;80.12;99213.38;3599731;39;20376;-63
2024/01/18 02:44:14;;;;;;;19.90;12.55;;;;;;;0.72;80.03;99209.03;3608708;39;20043;-63
2024/01/18 02:46:39;;;;;;;21.85;13.35;;;;;;;0.72;80.13;99216.97;3611119;39;20114;-64
2024/01/18 02:49:05;;;;;;;20.38;13.07;;;;;;;0.71;81.07;99218.75;3609697;39;20051;-63
2024/01/18 02:51:34;;;;;;;20.55;13.35;;;;;;;0.69;81.01;99216.16;3609105;39;20303;-63
2024/01/18 02:53:59;;;;;;;23.55;14.50;;;;;;;0.72;80.83;99220.47;3611847;39;20291;-64
2024/01/18 02:56:25;;;;;;;21.83;13.95;;;;;;;0.69;81.25;99216.16;3609473;39;20122;-63
2024/01/18 02:58:50;;;;;;;20.98;13.27;;;;;;;0.69;80.46;99215.31;3611759;39;20323;-64
2024/01/18 03:01:16;;;;;;;21.65;14.07;;;;;;;0.68;80.72;99214.47;3611926;39;20050;-63
2024/01/18 03:03:42;;;;;;;18.60;13.07;;;;;;;0.73;81.79;99223.97;3612128;39;20071;-63
2024/01/18 03:06:08;;;;;;;18.50;13.73;;;;;;;0.61;80.72;99218.34;3609720;39;20051;-63
2024/01/18 03:08:34;;;;;;;21.15;14.00;;;;;;;0.72;81.16;99236.31;3606399;39;20074;-63
2024/01/18 03:10:59;;;;;;;21.13;14.02;;;;;;;0.71;80.55;99233.78;3605552;39;20453;-64
2024/01/18 03:13:25;;;;;;;19.40;12.82;;;;;;;0.70;81.07;99227.63;3607209;39;20054;-64
2024/01/18 03:15:51;;;;;;;19.08;13.70;;;;;;;0.68;81.86;99218.91;3608577;39;20043;-64
2024/01/18 03:18:17;;;;;;;22.13;13.52;;;;;;;0.70;80.45;99222.34;3607018;39;20059;-63
2024/01/18 03:20:43;;;;;;;20.20;14.27;;;;;;;0.68;80.87;99230.34;3605932;39;20111;-63
2024/01/18 03:23:08;;;;;;;21.25;14.75;;;;;;;0.68;80.45;99246.19;3606317;39;20047;-64
2024/01/18 03:25:34;;;;;;;19.88;13.07;;;;;;;0.67;81.33;99239.19;3610487;39;20054;-64
2024/01/18 03:27:59;;;;;;;21.65;13.95;;;;;;;0.66;81.79;99236.63;3609565;39;20073;-63
2024/01/18 03:30:25;;;;;;;18.23;13.15;;;;;;;0.67;81.14;99239.19;3610182;39;20096;-63
2024/01/18 03:32:50;;;;;;;20.60;13.02;;;;;;;0.67;80.81;99244.50;3609279;39;20062;-64
2024/01/18 03:35:16;;;;;;;20.92;13.07;;;;;;;0.66;81.28;99242.75;3610175;39;20054;-63
2024/01/18 03:37:42;;;;;;;21.88;13.75;;;;;;;0.66;81.72;99241.91;3606541;39;20227;-63
2024/01/18 03:40:08;;;;;;;19.70;13.63;;;;;;;0.65;81.80;99243.69;3606808;39;20065;-63
2024/01/18 03:42:34;;;;;;;20.13;13.13;;;;;;;0.64;81.47;99244.63;3607322;39;20062;-63
2024/01/18 03:45:01;;;;;;;21.40;13.23;;;;;;;0.64;82.32;99243.78;3610897;39;20046;-63
2024/01/18 03:47:26;;;;;;;17.48;12.77;;;;;;;0.60;82.26;99245.72;3611038;39;20375;-63
2024/01/18 03:49:52;;;;;;;22.25;13.55;;;;;;;0.62;82.63;99250.91;3606398;39;20103;-63
2024/01/18 03:52:17;;;;;;;16.83;12.90;;;;;;;0.61;81.80;99250.06;3606998;39;20061;-63
2024/01/18 03:54:43;;;;;;;22.92;13.07;;;;;;;0.61;81.76;99260.66;3607170;39;20054;-63
2024/01/18 03:57:09;;;;;;;20.85;13.20;;;;;;;0.56;82.01;99262.63;3609939;39;20066;-63
2024/01/18 03:59:34;;;;;;;20.38;12.52;;;;;;;0.56;82.33;99264.41;3611109;39;20065;-63
2024/01/18 04:02:00;;;;;;;18.27;13.73;;;;;;;0.53;82.07;99278.63;3609803;39;20067;-64
2024/01/18 04:04:26;;;;;;;20.42;13.13;;;;;;;0.52;81.98;99274.28;3610839;39;20061;-63
2024/01/18 04:06:52;;;;;;;17.17;12.52;;;;;;;0.49;82.37;99266.50;3608698;39;20055;-63
2024/01/18 04:09:17;;;;;;;19.20;12.55;;;;;;;0.46;81.30;99267.47;3608840;39;20054;-64
2024/01/18 04:11:43;;;;;;;18.08;13.20;;;;;;;0.41;81.37;99265.97;3609355;39;20120;-63
2024/01/18 04:14:09;;;;;;;20.00;13.02;;;;;;;0.37;81.55;99272.31;3611211;39;20411;-63
2024/01/18 04:16:34;;;;;;;18.02;12.65;;;;;;;0.34;82.58;99272.47;3608500;39;20051;-63
2024/01/18 04:19:00;;;;;;;21.67;13.13;;;;;;;0.29;81.43;99279.75;3609745;39;20063;-63
2024/01/18 04:21:26;;;;;;;20.50;13.52;;;;;;;0.25;82.02;99276.38;3606377;39;20074;-63
2024/01/18 04:23:52;;;;;;;22.48;12.10;;;;;;;0.21;83.12;99278.28;3607272;39;20167;-63
2024/01/18 04:26:18;;;;;;;18.13;12.30;;;;;;;-0.09;81.74;99232.97;3610432;39;20119;-64
2024/01/18 04:28:43;;;;;;;18.30;11.85;;;;;;;0.12;82.66;99283.13;3611281;39;20048;-63
2024/01/18 04:31:09;;;;;;;22.52;12.70;;;;;;;0.11;82.59;99289.34;3609008;39;20051;-63
2024/01/18 04:33:34;;;;;;;19.63;12.48;;;;;;;0.10;82.71;99288.50;3608049;39;20094;-63
2024/01/18 04:36:00;;;;;;;21.50;12.55;;;;;;;0.08;83.01;99285.06;3607385;39;20095;-63
2024/01/18 04:38:26;;;;;;;19.67;12.32;;;;;;;0.08;82.73;99294.75;3609687;39;20433;-63
2024/01/18 04:40:51;;;;;;;17.33;12.20;;;;;;;0.04;83.69;99290.56;3609431;39;20051;-64
2024/01/18 04:43:17;;;;;;;19.40;11.77;;;;;;;0.03;82.81;99296.75;3606560;39;20043;-63
2024/01/18 04:45:43;;;;;;;17.60;12.52;;;;;;;-0.01;83.10;99303.94;3607539;39;20065;-63
2024/01/18 04:48:10;;;;;;;19.00;12.82;;;;;;;-0.05;83.66;99316.41;3610485;39;20063;-63
2024/01/18 04:50:35;;;;;;;16.30;11.63;;;;;;;-0.07;83.12;99314.75;3608648;39;20055;-63
2024/01/18 04:53:01;;;;;;;17.70;12.32;;;;;;;-0.12;82.50;99306.19;3607662;39;20062;-63
2024/01/18 04:55:27;;;;;;;18.55;11.75;;;;;;;-0.16;82.88;99320.44;3611245;39;20087;-63
2024/01/18 04:57:53;;;;;;;19.98;12.60;;;;;;;-0.18;82.93;99328.44;3609497;39;20089;-63
2024/01/18 05:00:19;;;;;;;18.63;11.30;;;;;;;-0.24;82.81;99342.75;3609674;39;20044;-63
2024/01/18 05:02:45;;;;;;;19.00;11.68;;;;;;;-0.28;83.48;99343.81;3610708;39;20310;-63
2024/01/18 05:05:11;;;;;;;17.85;11.10;;;;;;;-0.35;83.75;99342.34;3612304;39;20083;-64
2024/01/18 05:07:38;;;;;;;18.02;11.65;;;;;;;-0.39;82.25;99351.28;3611995;39;20038;-64
2024/01/18 05:10:05;;;;;;;17.10;11.82;;;;;;;-0.44;83.93;99348.00;3608456;39;20067;-64
2024/01/18 05:12:32;;;;;;;15.82;11.32;;;;;;;-0.53;83.95;99338.66;3610733;39;20047;-64
2024/01/18 05:14:58;;;;;;;17.05;10.98;;;;;;;-0.55;83.39;99342.28;3610925;39;20506;-64
2024/01/18 05:17:34;;;;;;;18.42;11.15;;;;;;;-0.60;84.21;99341.59;3609440;39;20065;-64
2024/01/18 05:20:02;;;;;;;22.63;11.68;;;;;;;-0.65;84.08;99343.59;3611266;39;20454;-63
2024/01/18 05:22:28;;;;;;;18.95;11.80;;;;;;;-0.69;84.06;99342.00;3612937;39;20047;-63
2024/01/18 05:24:53;;;;;;;19.75;12.43;;;;;;;-0.77;83.28;99345.78;3611635;39;20058;-64
2024/01/18 05:27:19;;;;;;;21.90;13.07;;;;;;;-0.80;83.28;99345.88;3610242;39;20112;-64
2024/01/18 05:29:47;;;;;;;18.65;13.38;;;;;;;-0.84;84.25;99346.94;3611768;39;20055;-64
2024/01/18 05:32:13;;;;;;;20.10;12.57;;;;;;;-0.93;84.14;99348.16;3611565;39;20039;-63
2024/01/18 05:34:40;;;;;;;21.50;12.90;;;;;;;-0.99;83.68;99361.56;3608896;39;20050;-64
2024/01/18 05:37:06;;;;;;;21.10;12.52;;;;;;;-1.04;83.64;99363.53;3611198;39;20341;-64
2024/01/18 05:39:31;;;;;;;17.15;11.38;;;;;;;-1.09;84.57;99367.25;3608803;39;20051;-64
2024/01/18 05:41:57;;;;;;;19.23;11.90;;;;;;;-1.14;83.27;99366.56;3606575;39;20111;-64
2024/01/18 05:44:22;;;;;;;17.30;12.45;;;;;;;-1.21;84.29;99366.78;3609577;39;20053;-64
2024/01/18 05:46:48;;;;;;;20.08;12.43;;;;;;;-1.23;83.75;99373.06;3606099;39;20317;-64
2024/01/18 05:49:14;;;;;;;19.35;11.38;;;;;;;-1.27;84.29;99376.72;3607975;39;20307;-64
2024/01/18 05:51:40;;;;;;;19.80;12.07;;;;;;;-1.33;83.82;99383.09;3609092;39;20067;-64
2024/01/18 05:54:06;;;;;;;18.77;11.68;;;;;;;-1.38;83.83;99377.13;3608837;39;20058;-64
2024/01/18 05:56:32;;;;;;;16.02;11.07;;;;;;;-1.39;84.50;99387.72;3607729;39;20055;-64
2024/01/18 05:58:58;;;;;;;17.67;12.05;;;;;;;-1.43;84.68;99390.47;3606608;39;20351;-63
2024/01/18 06:01:23;;;;;;;16.75;11.43;;;;;;;-1.46;85.11;99398.47;3609916;39;20111;-64
2024/01/18 06:03:49;;;;;;;17.27;11.13;;;;;;;-1.47;84.06;99398.53;3605800;39;20065;-64
2024/01/18 06:06:15;;;;;;;18.65;11.50;;;;;;;-1.53;84.32;99401.38;3598934;39;20418;-64
2024/01/18 06:08:41;;;;;;;19.88;11.70;;;;;;;-1.54;84.36;99399.66;3609567;39;20376;-64
2024/01/18 06:11:07;;;;;;;15.68;11.50;;;;;;;-1.60;84.49;99398.09;3608389;39;20075;-64
2024/01/18 06:13:33;;;;;;;18.17;11.48;;;;;;;-1.61;85.10;99403.44;3608983;39;20058;-64
2024/01/18 06:15:59;;;;;;;17.63;11.13;;;;;;;-1.64;84.95;99413.16;3608591;39;20083;-64
2024/01/18 06:18:25;;;;;;;19.73;11.13;;;;;;;-1.70;84.58;99421.28;3610441;39;20315;-64
2024/01/18 06:20:50;;;;;;;21.48;11.82;;;;;;;-1.71;84.23;99429.25;3606573;39;20063;-64
2024/01/18 06:23:16;;;;;;;15.55;11.35;;;;;;;-1.74;84.60;99430.19;3605474;39;20054;-64
2024/01/18 06:25:41;;;;;;;16.58;10.57;;;;;;;-1.76;84.05;99434.66;3606630;39;20066;-63
2024/01/18 06:28:07;;;;;;;20.15;10.88;;;;;;;-1.80;84.38;99435.69;3607812;39;20066;-64
2024/01/18 06:30:33;;;;;;;19.05;11.02;;;;;;;-1.78;84.81;99447.00;3600899;39;20058;-64
2024/01/18 06:32:58;;;;;;;17.45;10.73;;;;;;;-1.80;84.48;99440.94;3607601;39;20063;-64
2024/01/18 06:35:24;;;;;;;15.55;10.73;;;;;;;-1.90;83.84;99440.41;3607420;39;20113;-64
2024/01/18 06:37:51;;;;;;;16.13;10.68;;;;;;;-1.84;84.76;99460.38;3605461;39;20065;-64
2024/01/18 06:40:18;;;;;;;19.10;10.95;;;;;;;-1.85;84.30;99453.38;3606199;39;20663;-64
2024/01/18 06:42:43;;;;;;;21.13;10.48;;;;;;;-1.87;83.72;99464.00;3609362;39;20046;-64
2024/01/18 06:45:09;;;;;;;19.80;10.35;;;;;;;-1.88;84.04;99458.75;3607795;39;20318;-64
2024/01/18 06:47:35;;;;;;;14.93;10.68;;;;;;;-1.90;83.29;99465.88;3608553;39;20059;-63
2024/01/18 06:50:01;;;;;;;14.15;10.05;;;;;;;-1.90;83.60;99465.88;3606196;39;20063;-63
2024/01/18 06:52:26;;;;;;;15.55;10.27;;;;;;;-1.93;83.91;99460.72;3607367;39;20134;-64
2024/01/18 06:54:52;;;;;;;17.13;10.85;;;;;;;-1.97;84.14;99470.44;3605851;39;20296;-64
2024/01/18 06:57:20;;;;;;;17.33;10.35;;;;;;;-1.97;83.76;99474.84;3607210;39;20043;-64
2024/01/18 06:59:46;;;;;;;17.92;10.25;;;;;;;-1.94;84.34;99485.28;3608913;39;20321;-64
2024/01/18 07:02:12;;;;;;;15.63;10.10;;;;;;;-1.98;83.88;99487.16;3607376;39;20071;-64
2024/01/18 07:04:38;;;;;;;15.02;10.07;;;;;;;-1.98;84.21;99486.31;3610108;39;20402;-65
2024/01/18 07:07:04;;;;;;;16.65;10.05;;;;;;;-2.01;83.39;99489.91;3608861;39;20086;-64
2024/01/18 07:09:30;;;;;;;15.57;9.55;;;;;;;-2.05;83.38;99490.91;3608927;39;20418;-64
2024/01/18 07:11:57;;;;;;;14.15;10.02;;;;;;;-2.05;83.62;99504.09;3598304;39;20059;-64
2024/01/18 07:14:22;;;;;;;14.80;9.43;;;;;;;-2.10;83.14;99500.72;3607508;39;20051;-64
2024/01/18 07:16:48;;;;;;;12.48;10.07;;;;;;;-2.11;83.31;99505.13;3610563;39;20398;-64
2024/01/18 07:19:14;;;;;;;16.77;10.10;;;;;;;-2.13;82.22;99506.09;3609668;39;20046;-65
2024/01/18 07:21:40;;;;;;;12.27;9.32;;;;;;;-2.14;83.17;99513.13;3598559;39;20050;-64
2024/01/18 07:24:06;;;;;;;16.65;9.52;;;;;;;-2.16;83.29;99508.81;3607696;39;20051;-64
2024/01/18 07:26:31;;;;;;;16.08;9.75;;;;;;;-2.19;82.93;99517.69;3609873;39;20365;-64
2024/01/18 07:28:59;;;;;;;16.55;9.73;;;;;;;-2.21;83.43;99511.59;3610688;39;20050;-65
2024/01/18 07:31:25;;;;;;;18.15;9.75;;;;;;;-2.23;83.44;99515.19;3607787;39;20065;-64
2024/01/18 07:33:51;;;;;;;15.98;9.93;;;;;;;-2.24;83.27;99522.22;3610743;39;20303;-64
2024/01/18 07:36:17;;;;;;;13.00;9.52;;;;;;;-2.24;82.99;99530.13;3610365;39;20406;-64
2024/01/18 07:38:43;;;;;;;16.48;9.82;;;;;;;-2.23;83.35;99537.09;3605700;39;20043;-64
2024/01/18 07:41:09;;;;;;;17.02;9.93;;;;;;;-2.23;83.10;99537.09;3606586;39;20057;-64
2024/01/18 07:43:35;;;;;;;18.02;9.43;;;;;;;-2.24;83.21;99534.53;3608719;39;20074;-64
2024/01/18 07:46:01;;;;;;;15.20;8.98;;;;;;;-2.25;83.34;99546.81;3607162;39;20063;-64
2024/01/18 07:48:26;;;;;;;15.98;9.45;;;;;;;-2.26;83.11;99547.72;3611642;39;20063;-64
2024/01/18 07:50:52;;;;;;;13.23;8.70;;;;;;;-2.26;83.65;99550.34;3608542;39;20055;-64
2024/01/18 07:53:18;;;;;;;15.30;9.77;;;;;;;-2.26;83.71;99560.00;3604897;39;20106;-64
2024/01/18 07:55:44;;;;;;;15.73;9.90;;;;;;;-2.35;84.02;99551.50;3607564;39;20299;-64
2024/01/18 07:58:10;;;;;;;14.25;10.00;;;;;;;-2.26;83.17;99567.91;3608431;39;20047;-64
2024/01/18 08:00:36;;;;;;;18.70;10.15;;;;;;;-2.47;83.91;99537.84;3611561;39;20335;-64
2024/01/18 08:03:10;;;;;;;19.58;10.20;;;;;;;-2.27;84.22;99574.09;3610878;39;20063;-64
2024/01/18 08:05:36;;;;;;;15.23;9.48;;;;;;;-2.26;84.42;99576.66;3609189;39;20051;-64
2024/01/18 08:08:01;;;;;;;15.90;10.30;;;;;;;-2.19;84.37;99582.59;3606969;39;20113;-64
2024/01/18 08:10:27;;;;;;;18.50;10.05;;;;;;;-2.15;84.17;99594.78;3609006;39;20050;-64
2024/01/18 08:12:53;;;;;;;15.98;9.95;;;;;;;-2.14;84.09;99594.72;3609270;39;20105;-65
2024/01/18 08:15:19;;;;;;;19.73;9.38;;;;;;;-2.15;84.82;99593.00;3611182;39;20051;-64
2024/01/18 08:17:45;;;;;;;17.98;10.25;;;;;;;-2.12;84.20;99607.84;3612000;39;20055;-64
2024/01/18 08:20:12;;;;;;;20.77;10.63;;;;;;;-2.12;83.69;99598.19;3612301;39;20291;-64
2024/01/18 08:22:42;;;;;;;18.05;10.45;;;;;;;-2.10;84.43;99600.75;3608692;39;20043;-65
2024/01/18 08:25:10;;;;;;;16.48;9.90;;;;;;;-2.06;84.55;99601.53;3610671;39;20458;-64
2024/01/18 08:27:40;;;;;;;17.83;9.73;;;;;;;-2.02;84.67;99613.72;3611731;39;20053;-64
2024/01/18 08:30:07;;;;;;;17.70;9.02;;;;;;;-2.00;84.28;99617.13;3610731;39;20405;-64
2024/01/18 08:32:34;;;;;;;14.88;9.40;;;;;;;-1.95;84.64;99620.50;3608989;39;20058;-64
2024/01/18 08:35:06;;;;;;;13.60;8.95;;;;;;;-1.93;85.07;99623.97;3602047;39;20093;-64
2024/01/18 08:37:37;;;;;;;14.73;9.18;;;;;;;-1.87;85.22;99622.00;3612116;39;20452;-64
2024/01/18 08:40:04;;;;;;;13.65;9.27;;;;;;;-1.78;85.29;99634.00;3613662;39;20307;-64
2024/01/18 08:42:30;;;;;;;19.25;9.18;;;;;;;-1.84;84.47;99618.38;3614059;39;20147;-64
2024/01/18 08:44:56;;;;;;;14.20;9.50;;;;;;;-1.66;84.26;99643.31;3613059;39;20059;-64
2024/01/18 08:47:26;;;;;;;15.30;9.40;;;;;;;-1.60;84.32;99639.63;3614903;39;20051;-64
2024/01/18 08:49:52;;;;;;;15.98;8.88;;;;;;;-1.53;84.88;99649.06;3612071;39;20050;-64
2024/01/18 08:52:17;;;;;;;14.00;9.27;;;;;;;-1.47;83.96;99644.47;3613698;39;20087;-64
2024/01/18 08:54:43;;;;;;;14.05;8.88;;;;;;;-1.41;83.39;99649.53;3611322;39;20102;-64
2024/01/18 08:57:08;;;;;;;12.55;9.07;;;;;;;-1.38;83.97;99648.59;3614268;39;20276;-64
2024/01/18 08:59:35;;;;;;;12.40;8.60;;;;;;;-1.29;84.82;99661.47;3613682;39;20054;-64
2024/01/18 09:02:00;;;;;;;18.35;8.82;;;;;;;-1.27;84.75;99654.38;3612489;39;20094;-64
2024/01/18 09:04:26;;;;;;;13.20;8.73;;;;;;;-1.14;83.30;99672.41;3612994;39;20050;-64
2024/01/18 09:06:52;;;;;;;12.90;8.15;;;;;;;-1.09;83.34;99681.91;3610003;39;20058;-63
2024/01/18 09:09:17;;;;;;;18.05;8.60;;;;;;;-1.02;84.21;99682.56;3612167;39;20091;-64
2024/01/18 09:11:43;;;;;;;14.85;9.00;;;;;;;-0.91;84.85;99685.72;3612323;39;20050;-64
2024/01/18 09:14:08;;;;;;;12.48;8.80;;;;;;;-0.83;84.31;99681.03;3612518;39;20830;-64
2024/01/18 09:16:34;;;;;;;11.95;8.02;;;;;;;-0.76;83.05;99687.84;3613423;39;20042;-64
2024/01/18 09:19:00;;;;;;;12.02;8.50;;;;;;;-1.01;83.31;99644.75;3602471;39;20074;-63
2024/01/18 09:21:26;;;;;;;10.82;8.13;;;;;;;-0.67;83.34;99699.84;3612632;39;20042;-63
2024/01/18 09:23:53;;;;;;;13.70;7.88;;;;;;;-0.60;83.02;99703.13;3609998;39;20061;-63
2024/01/18 09:26:18;;;;;;;13.50;7.95;;;;;;;-0.56;81.96;99708.28;3611892;39;20405;-63
2024/01/18 09:28:44;;;;;;;14.23;8.82;;;;;;;-0.50;82.25;99707.22;3609869;39;20051;-63
2024/01/18 09:31:11;;;;;;;18.02;8.38;;;;;;;-0.51;82.19;99700.19;3610840;39;20058;-63
2024/01/18 09:33:37;;;;;;;15.02;7.45;;;;;;;-0.33;83.34;99719.81;3612682;39;20380;-63
2024/01/18 09:36:05;;;;;;;11.10;7.72;;;;;;;-0.25;82.38;99733.63;3612393;39;20055;-63
2024/01/18 09:38:31;;;;;;;9.75;7.13;;;;;;;-0.29;83.13;99702.94;3612082;39;20318;-62
2024/01/18 09:41:05;;;;;;;8.88;6.50;;;;;;;-0.03;82.50;99733.72;3611506;39;20057;-63
2024/01/18 09:43:37;;;;;;;11.65;6.20;;;;;;;0.10;83.32;99753.50;3612109;39;20051;-62
2024/01/18 09:46:07;;;;;;;13.18;6.75;;;;;;;0.23;82.32;99744.19;3611272;39;20097;-63
2024/01/18 09:48:36;;;;;;;10.50;6.05;;;;;;;0.37;81.35;99758.66;3608198;39;20055;-62
2024/01/18 09:51:06;;;;;;;12.48;5.43;;;;;;;0.52;82.15;99759.88;3610998;39;20407;-62
2024/01/18 09:53:33;;;;;;;8.80;5.00;;;;;;;0.64;80.89;99764.72;3612835;39;20059;-63
2024/01/18 09:56:21;;;;;;;8.93;5.35;;;;;;;0.82;80.83;99765.75;3609519;39;20100;-62
2024/01/18 09:58:46;;;;;;;11.18;4.63;;;;;;;1.02;79.72;99768.50;3610066;39;21131;-62
2024/01/18 10:01:19;;;;;;;8.40;4.50;;;;;;;1.23;80.08;99769.41;3601457;39;20066;-63
2024/01/18 10:03:45;;;;;;;6.05;4.35;;;;;;;1.49;79.84;99784.25;3610910;39;20453;-62
2024/01/18 10:06:10;;;;;;;6.68;4.35;;;;;;;1.61;77.85;99766.97;3608629;39;20435;-62
2024/01/18 10:08:36;;;;;;;5.85;4.10;;;;;;;2.01;77.02;99797.06;3609637;39;20065;-63
2024/01/18 10:11:02;;;;;;;5.20;3.85;;;;;;;2.29;74.94;99802.03;3610149;39;20050;-63
2024/01/18 10:13:27;;;;;;;4.72;3.45;;;;;;;2.51;73.68;99808.09;3611997;39;20095;-62
2024/01/18 10:15:53;;;;;;;8.65;3.55;;;;;;;2.78;73.12;99805.94;3610537;39;20069;-63
2024/01/18 10:18:19;;;;;;;5.10;3.17;;;;;;;3.03;71.74;99815.44;3603707;39;20402;-63
2024/01/18 10:20:47;;;;;;;6.15;3.42;;;;;;;3.27;71.21;99821.38;3611349;39;20059;-63
2024/01/18 10:23:13;;;;;;;5.80;3.15;;;;;;;3.47;70.94;99815.94;3610343;39;20048;-64
2024/01/18 10:25:40;;;;;;;6.13;2.92;;;;;;;3.78;69.51;99824.22;3610274;39;20424;-63
2024/01/18 10:28:06;;;;;;;5.53;3.17;;;;;;;3.98;67.98;99823.22;3609650;39;20051;-64
2024/01/18 10:30:33;;;;;;;6.05;2.70;;;;;;;4.28;66.79;99840.25;3610344;39;20054;-64
2024/01/18 10:33:00;;;;;;;8.27;3.35;;;;;;;4.53;65.55;99841.63;3611199;39;20077;-64
2024/01/18 10:35:28;;;;;;;7.28;3.28;;;;;;;4.71;65.11;99834.47;3608569;39;20391;-64
2024/01/18 10:38:05;;;;;;;4.55;3.13;;;;;;;4.93;63.94;99844.81;3609526;39;20059;-64
2024/01/18 10:40:33;;;;;;;5.15;2.97;;;;;;;5.11;62.85;99841.16;3610033;39;20304;-65
2024/01/18 10:43:01;;;;;;;7.10;3.40;;;;;;;5.32;62.51;99845.28;3610713;39;20127;-64
2024/01/18 10:45:29;;;;;;;5.60;3.17;;;;;;;5.51;62.24;99854.91;3611144;39;20079;-64
2024/01/18 10:47:56;;;;;;;6.07;3.63;;;;;;;5.65;61.38;99847.00;3609670;39;20082;-64
2024/01/18 10:50:22;;;;;;;5.72;3.15;;;;;;;5.78;61.07;99852.47;3611718;39;20092;-64
2024/01/18 10:52:48;;;;;;;5.10;2.67;;;;;;;6.01;60.56;99860.03;3611361;39;20430;-64
2024/01/18 10:55:21;;;;;;;5.00;3.03;;;;;;;6.23;59.42;99859.63;3608296;39;20410;-64
2024/01/18 10:57:47;;;;;;;5.53;3.20;;;;;;;6.39;58.12;99861.38;3611674;39;20075;-64
2024/01/18 11:00:16;;;;;;;4.95;3.33;;;;;;;6.57;58.47;99857.59;3608089;39;20385;-64
2024/01/18 11:02:44;;;;;;;7.50;2.83;;;;;;;6.71;57.30;99862.09;3613058;39;20404;-65
2024/01/18 11:05:18;;;;;;;6.75;3.00;;;;;;;6.84;56.75;99871.06;3611039;39;20148;-64
2024/01/18 11:07:45;;;;;;;6.65;3.25;;;;;;;6.97;56.04;99877.34;3610530;39;20034;-64
2024/01/18 11:10:12;;;;;;;5.75;2.78;;;;;;;7.14;56.29;99883.47;3609973;39;20059;-65
2024/01/18 11:12:47;;;;;;;6.95;2.90;;;;;;;7.31;55.50;99882.41;3610924;39;20050;-65
2024/01/18 11:15:16;;;;;;;5.15;2.90;;;;;;;7.41;54.50;99880.84;3611122;39;20120;-64
2024/01/18 11:17:52;;;;;;;4.95;2.80;;;;;;;7.53;53.92;99885.44;3611748;39;20061;-65
2024/01/18 11:20:18;;;;;;;6.88;3.15;;;;;;;7.69;52.96;99885.28;3609342;39;20047;-65